createdAt,value
2018-03-23T00:00:36.223Z,27.80
2018-03-23T00:03:03.702Z,29.47
2018-03-23T00:05:32.077Z,27.30
2018-03-23T00:07:59.536Z,27.47
2018-03-23T00:10:27.017Z,30.70
2018-03-23T00:12:55.246Z,25.20
2018-03-23T00:15:22.716Z,29.90
2018-03-23T00:17:50.176Z,26.37
2018-03-23T00:20:17.654Z,28.13
2018-03-23T00:22:45.123Z,27.17
2018-03-23T00:25:13.361Z,29.30
2018-03-23T00:27:40.821Z,29.17
2018-03-23T00:30:08.312Z,28.90
2018-03-23T00:32:37.477Z,26.33
2018-03-23T00:35:04.969Z,30.33
2018-03-23T00:37:33.201Z,27.27
2018-03-23T00:40:00.688Z,28.57
2018-03-23T00:42:28.170Z,28.67
2018-03-23T00:44:55.654Z,28.93
2018-03-23T00:47:23.883Z,28.30
2018-03-23T00:49:51.353Z,28.80
2018-03-23T00:52:18.837Z,27.13
2018-03-23T00:54:46.301Z,28.07
2018-03-23T00:57:14.574Z,28.17
2018-03-23T00:59:42.049Z,28.57
2018-03-23T01:02:09.531Z,30.07
2018-03-23T01:04:37.481Z,29.90
2018-03-23T01:07:04.967Z,25.27
2018-03-23T01:09:32.436Z,29.50
2018-03-23T01:11:59.933Z,26.53
2018-03-23T01:14:28.162Z,26.33
2018-03-23T01:16:55.657Z,24.47
2018-03-23T01:19:23.126Z,26.77
2018-03-23T01:21:51.373Z,23.00
2018-03-23T01:24:18.829Z,24.07
2018-03-23T01:26:46.319Z,26.30
2018-03-23T01:29:14.558Z,26.90
2018-03-23T01:31:42.044Z,24.27
2018-03-23T01:34:10.309Z,22.90
2018-03-23T01:36:37.797Z,26.87
2018-03-23T01:39:05.258Z,26.73
2018-03-23T01:41:32.735Z,26.97
2018-03-23T01:44:00.196Z,21.90
2018-03-23T01:46:27.674Z,24.97
2018-03-23T01:48:55.139Z,24.07
2018-03-23T01:51:22.653Z,25.10
2018-03-23T01:53:50.108Z,24.47
2018-03-23T01:56:17.601Z,27.87
2018-03-23T01:58:45.061Z,23.27
2018-03-23T02:01:12.544Z,24.20
2018-03-23T02:03:40.012Z,24.27
2018-03-23T02:06:08.269Z,25.70
2018-03-23T02:08:35.772Z,26.43
2018-03-23T02:11:03.249Z,25.30
2018-03-23T02:13:30.707Z,24.80
2018-03-23T02:15:58.227Z,27.00
2018-03-23T02:18:26.451Z,25.73
2018-03-23T02:20:53.935Z,26.73
2018-03-23T02:23:21.395Z,25.07
2018-03-23T02:25:49.686Z,23.90
2018-03-23T02:28:17.921Z,26.23
2018-03-23T02:30:45.414Z,27.60
2018-03-23T02:33:13.658Z,25.03
2018-03-23T02:35:41.132Z,26.17
2018-03-23T02:38:08.635Z,24.93
2018-03-23T02:40:36.122Z,25.30
2018-03-23T02:43:03.594Z,27.37
2018-03-23T02:45:31.096Z,28.13
2018-03-23T02:47:58.569Z,28.87
2018-03-23T02:50:26.048Z,27.77
2018-03-23T02:52:53.532Z,30.20
2018-03-23T02:55:21.797Z,29.37
2018-03-23T02:57:49.267Z,32.60
2018-03-23T03:00:16.745Z,31.00
2018-03-23T03:02:45.015Z,29.70
2018-03-23T03:05:13.254Z,29.57
2018-03-23T03:07:40.764Z,31.90
2018-03-23T03:10:08.293Z,33.73
2018-03-23T03:12:35.780Z,30.47
2018-03-23T03:15:03.255Z,33.63
2018-03-23T03:17:30.741Z,33.23
2018-03-23T03:19:58.420Z,33.03
2018-03-23T03:22:25.904Z,34.83
2018-03-23T03:24:54.137Z,28.47
2018-03-23T03:27:21.619Z,34.77
2018-03-23T03:29:49.077Z,36.10
2018-03-23T03:32:16.565Z,34.40
2018-03-23T03:34:44.035Z,30.87
2018-03-23T03:37:11.521Z,32.83
2018-03-23T03:39:38.995Z,34.53
2018-03-23T03:42:06.497Z,36.67
2018-03-23T03:44:33.973Z,33.73
2018-03-23T03:47:01.460Z,33.73
2018-03-23T03:49:28.926Z,32.60
2018-03-23T03:51:56.416Z,34.40
2018-03-23T03:54:24.650Z,36.10
2018-03-23T03:56:52.133Z,31.50
2018-03-23T03:59:20.388Z,33.27
2018-03-23T04:01:47.869Z,33.87
2018-03-23T04:04:16.104Z,32.33
2018-03-23T04:06:43.664Z,34.33
2018-03-23T04:09:11.129Z,32.43
2018-03-23T04:11:38.615Z,33.33
2018-03-23T04:14:06.846Z,30.73
2018-03-23T04:16:34.334Z,32.17
2018-03-23T04:19:01.797Z,34.33
2018-03-23T04:21:30.044Z,37.80
2018-03-23T04:23:57.528Z,34.20
2018-03-23T04:26:25.017Z,35.20
2018-03-23T04:28:52.476Z,34.73
2018-03-23T04:31:19.978Z,34.13
2018-03-23T04:33:47.441Z,36.30
2018-03-23T04:36:15.553Z,36.73
2018-03-23T04:38:43.008Z,35.23
2018-03-23T04:41:10.493Z,36.63
2018-03-23T04:43:37.956Z,35.57
2018-03-23T04:46:06.200Z,36.30
2018-03-23T04:48:33.683Z,36.07
2018-03-23T04:51:01.938Z,40.87
2018-03-23T04:53:29.397Z,35.93
2018-03-23T04:55:56.880Z,33.53
2018-03-23T04:58:24.350Z,37.70
2018-03-23T05:00:51.828Z,36.97
2018-03-23T05:03:20.068Z,31.80
2018-03-23T05:05:47.562Z,34.23
2018-03-23T05:08:15.814Z,36.90
2018-03-23T05:10:43.323Z,36.13
2018-03-23T05:13:10.803Z,35.30
2018-03-23T05:18:13.953Z,34.83
2018-03-23T05:20:42.182Z,35.07
2018-03-23T05:23:09.668Z,38.03
2018-03-23T05:25:37.139Z,34.93
2018-03-23T05:28:04.625Z,36.23
2018-03-23T05:30:32.094Z,36.30
2018-03-23T05:32:59.584Z,36.80
2018-03-23T05:35:27.053Z,35.03
2018-03-23T05:37:54.529Z,36.20
2018-03-23T05:40:22.764Z,33.50
2018-03-23T05:42:50.241Z,38.40
2018-03-23T05:45:17.705Z,37.67
2018-03-23T05:47:45.197Z,38.47
2018-03-23T05:50:12.672Z,42.60
2018-03-23T05:52:40.145Z,41.57
2018-03-23T05:55:07.623Z,36.37
2018-03-23T05:57:35.244Z,37.10
2018-03-23T06:00:02.743Z,38.53
2018-03-23T06:02:30.234Z,39.30
2018-03-23T06:04:58.494Z,44.17
2018-03-23T06:07:26.002Z,44.23
2018-03-23T06:09:53.473Z,41.63
2018-03-23T06:12:21.012Z,41.20
2018-03-23T06:14:48.568Z,41.97
2018-03-23T06:17:16.096Z,41.97
2018-03-23T06:19:44.337Z,40.03
2018-03-23T06:22:11.815Z,46.27
2018-03-23T06:24:40.037Z,40.40
2018-03-23T06:27:07.512Z,40.13
2018-03-23T06:29:34.973Z,42.90
2018-03-23T06:32:02.462Z,43.60
2018-03-23T06:34:30.705Z,43.57
2018-03-23T06:36:58.275Z,41.77
2018-03-23T06:39:25.705Z,38.97
2018-03-23T06:41:53.311Z,39.27
2018-03-23T06:44:20.756Z,41.17
2018-03-23T06:46:48.288Z,39.77
2018-03-23T06:49:15.756Z,44.90
2018-03-23T06:51:43.247Z,42.83
2018-03-23T06:54:10.734Z,38.40
2018-03-23T06:56:38.219Z,41.37
2018-03-23T06:59:05.692Z,43.60
2018-03-23T07:01:33.167Z,43.60
2018-03-23T07:04:01.418Z,40.50
2018-03-23T07:06:28.904Z,43.37
2018-03-23T07:08:57.157Z,49.00
2018-03-23T07:11:24.632Z,66.90
2018-03-23T07:13:52.905Z,49.43
2018-03-23T07:16:21.201Z,46.43
2018-03-23T07:18:48.733Z,45.87
2018-03-23T07:21:16.202Z,45.33
2018-03-23T07:23:45.391Z,53.35
2018-03-23T07:26:12.858Z,49.63
2018-03-23T07:28:41.117Z,49.63
2018-03-23T07:31:08.587Z,48.17
2018-03-23T07:33:36.829Z,45.93
2018-03-23T07:36:04.291Z,43.37
2018-03-23T07:38:31.776Z,46.13
2018-03-23T07:41:00.018Z,45.10
2018-03-23T07:43:27.525Z,49.10
2018-03-23T07:45:55.765Z,58.90
2018-03-23T07:48:23.258Z,45.23
2018-03-23T07:50:50.806Z,49.77
2018-03-23T07:53:19.065Z,47.63
2018-03-23T07:55:46.526Z,49.00
2018-03-23T07:58:15.521Z,44.97
2018-03-23T08:00:43.843Z,46.17
2018-03-23T08:03:11.329Z,50.17
2018-03-23T08:05:38.797Z,50.33
2018-03-23T08:08:06.289Z,56.07
2018-03-23T08:10:33.767Z,53.67
2018-03-23T08:13:01.241Z,49.47
2018-03-23T08:15:28.706Z,54.00
2018-03-23T08:17:56.194Z,48.60
2018-03-23T08:20:23.656Z,50.37
2018-03-23T08:22:51.162Z,51.77
2018-03-23T08:25:18.635Z,51.40
2018-03-23T08:27:46.117Z,50.93
2018-03-23T08:30:14.425Z,49.07
2018-03-23T08:32:41.889Z,47.23
2018-03-23T08:35:09.347Z,47.23
2018-03-23T08:37:36.847Z,46.27
2018-03-23T08:40:04.324Z,43.97
2018-03-23T08:42:32.574Z,42.87
2018-03-23T08:45:00.092Z,43.40
2018-03-23T08:47:27.612Z,46.07
2018-03-23T08:49:55.852Z,43.70
2018-03-23T08:52:23.334Z,47.20
2018-03-23T08:54:50.810Z,48.80
2018-03-23T08:57:19.053Z,54.93
2018-03-23T08:59:46.509Z,48.17
2018-03-23T09:02:14.010Z,46.90
2018-03-23T09:04:41.474Z,48.77
2018-03-23T09:07:08.954Z,42.43
2018-03-23T09:09:36.466Z,47.67
2018-03-23T09:12:03.927Z,46.57
2018-03-23T09:14:32.157Z,41.53
2018-03-23T09:16:59.644Z,39.00
2018-03-23T09:19:27.121Z,38.03
2018-03-23T09:21:55.369Z,34.73
2018-03-23T09:24:22.837Z,38.80
2018-03-23T09:26:50.305Z,42.60
2018-03-23T09:29:18.551Z,40.07
2018-03-23T09:31:47.520Z,39.43
2018-03-23T09:34:15.001Z,38.10
2018-03-23T09:36:42.472Z,36.63
2018-03-23T09:39:09.965Z,32.97
2018-03-23T09:41:37.429Z,34.70
2018-03-23T09:44:04.927Z,36.73
2018-03-23T09:46:32.400Z,36.07
2018-03-23T09:48:59.962Z,33.60
2018-03-23T09:51:27.436Z,31.90
2018-03-23T09:53:54.913Z,32.83
2018-03-23T09:56:22.387Z,33.60
2018-03-23T09:58:50.629Z,35.30
2018-03-23T10:01:18.097Z,29.30
2018-03-23T10:03:45.686Z,34.37
2018-03-23T10:06:13.873Z,34.03
2018-03-23T10:08:41.344Z,30.83
2018-03-23T10:11:09.576Z,31.47
2018-03-23T10:13:37.063Z,31.43
2018-03-23T10:16:04.555Z,32.27
2018-03-23T10:18:32.041Z,35.13
2018-03-23T10:20:59.524Z,30.53
2018-03-23T10:23:27.001Z,35.37
2018-03-23T10:25:55.246Z,33.83
2018-03-23T10:28:23.494Z,30.33
2018-03-23T10:30:50.978Z,27.90
2018-03-23T10:33:19.228Z,30.70
2018-03-23T10:35:46.686Z,35.23
2018-03-23T10:38:14.162Z,29.90
2018-03-23T10:40:41.684Z,29.93
2018-03-23T10:43:09.156Z,34.13
2018-03-23T10:45:36.613Z,31.83
2018-03-23T10:48:04.126Z,31.70
2018-03-23T10:50:32.366Z,31.07
2018-03-23T10:52:59.853Z,31.67
2018-03-23T10:55:28.080Z,27.43
2018-03-23T10:57:55.558Z,26.50
2018-03-23T11:00:28.640Z,25.07
2018-03-23T11:02:56.121Z,24.60
2018-03-23T11:05:23.584Z,27.37
2018-03-23T11:07:51.081Z,26.60
2018-03-23T11:10:18.545Z,28.23
2018-03-23T11:12:46.036Z,27.50
2018-03-23T11:15:14.267Z,22.03
2018-03-23T11:17:41.852Z,30.00
2018-03-23T11:20:10.127Z,24.67
2018-03-23T11:22:37.601Z,24.63
2018-03-23T11:25:05.080Z,23.23
2018-03-23T11:27:32.545Z,21.77
2018-03-23T11:30:00.038Z,21.47
2018-03-23T11:32:29.009Z,21.57
2018-03-23T11:34:56.613Z,20.03
2018-03-23T11:37:24.850Z,21.77
2018-03-23T11:39:52.436Z,21.83
2018-03-23T11:42:19.898Z,22.37
2018-03-23T11:44:48.211Z,20.77
2018-03-23T11:47:15.673Z,24.53
2018-03-23T11:49:43.162Z,25.07
2018-03-23T11:52:10.615Z,23.70
2018-03-23T11:54:38.114Z,30.10
2018-03-23T11:57:06.340Z,25.83
2018-03-23T11:59:33.816Z,24.83
2018-03-23T12:02:01.357Z,28.43
2018-03-23T12:04:28.802Z,26.90
2018-03-23T12:06:56.269Z,26.73
2018-03-23T12:09:23.756Z,25.67
2018-03-23T12:11:51.225Z,29.20
2018-03-23T12:14:19.554Z,24.93
2018-03-23T12:16:46.958Z,26.03
2018-03-23T12:19:15.225Z,25.20
2018-03-23T12:21:42.689Z,24.40
2018-03-23T12:24:10.177Z,30.73
2018-03-23T12:26:37.631Z,29.10
2018-03-23T12:29:05.129Z,28.00
2018-03-23T12:31:32.614Z,30.53
2018-03-23T12:34:00.086Z,31.00
2018-03-23T12:36:27.549Z,35.40
2018-03-23T12:38:55.040Z,34.13
2018-03-23T12:41:22.506Z,28.87
2018-03-23T12:43:49.990Z,29.27
2018-03-23T12:46:17.482Z,31.57
2018-03-23T12:48:44.960Z,29.27
2018-03-23T12:51:13.206Z,27.10
2018-03-23T12:53:40.676Z,28.33
2018-03-23T12:56:08.136Z,30.30
2018-03-23T12:58:36.459Z,31.93
2018-03-23T13:01:03.946Z,31.67
2018-03-23T13:03:31.438Z,33.03
2018-03-23T13:05:58.980Z,31.03
2018-03-23T13:08:26.464Z,31.47
2018-03-23T13:10:53.926Z,29.17
2018-03-23T13:13:21.385Z,27.83
2018-03-23T13:15:48.873Z,29.90
2018-03-23T13:18:17.275Z,29.57
2018-03-23T13:20:44.770Z,28.67
2018-03-23T13:23:12.236Z,28.30
2018-03-23T13:25:39.738Z,29.90
2018-03-23T13:28:07.210Z,30.00
2018-03-23T13:30:34.718Z,27.30
2018-03-23T13:33:02.970Z,32.13
2018-03-23T13:35:30.555Z,32.07
2018-03-23T13:37:58.792Z,28.07
2018-03-23T13:40:26.273Z,38.77
2018-03-23T13:42:53.747Z,44.30
2018-03-23T13:45:22.012Z,34.40
2018-03-23T13:47:50.252Z,79.33
2018-03-23T13:50:17.826Z,38.50
2018-03-23T13:52:45.200Z,38.73
2018-03-23T13:55:13.463Z,42.70
2018-03-23T13:57:40.936Z,33.53
2018-03-23T14:03:06.754Z,53.70
2018-03-23T14:05:34.243Z,51.93
2018-03-23T14:08:02.476Z,37.90
2018-03-23T14:10:29.999Z,37.13
2018-03-23T14:12:57.478Z,34.87
2018-03-23T14:15:24.972Z,31.10
2018-03-23T14:17:52.429Z,30.63
2018-03-23T14:20:19.902Z,31.30
2018-03-23T14:22:48.138Z,31.33
2018-03-23T14:25:15.657Z,35.83
2018-03-23T14:27:43.165Z,32.50
2018-03-23T14:30:10.653Z,34.57
2018-03-23T14:32:38.910Z,32.60
2018-03-23T14:35:06.413Z,32.40
2018-03-23T14:37:33.878Z,32.07
2018-03-23T14:40:01.356Z,30.73
2018-03-23T14:42:28.893Z,26.27
2018-03-23T14:44:56.396Z,31.17
2018-03-23T14:47:23.858Z,29.23
2018-03-23T14:49:51.336Z,30.70
2018-03-23T14:52:19.610Z,30.57
2018-03-23T14:54:47.064Z,30.87
2018-03-23T14:57:14.573Z,29.67
2018-03-23T14:59:42.049Z,25.33
2018-03-23T15:02:09.542Z,29.50
2018-03-23T15:04:37.808Z,32.37
2018-03-23T15:07:06.059Z,29.70
2018-03-23T15:09:33.552Z,32.63
2018-03-23T15:12:01.788Z,28.53
2018-03-23T15:14:31.031Z,27.97
2018-03-23T15:16:58.518Z,30.87
2018-03-23T15:19:26.018Z,31.70
2018-03-23T15:21:54.253Z,30.17
2018-03-23T15:24:21.745Z,29.80
2018-03-23T15:26:49.227Z,31.10
2018-03-23T15:29:17.521Z,28.70
2018-03-23T15:31:44.987Z,31.30
2018-03-23T15:34:12.544Z,29.77
2018-03-23T15:36:40.029Z,28.90
2018-03-23T15:39:07.553Z,30.23
2018-03-23T15:41:35.062Z,29.73
2018-03-23T15:44:02.534Z,31.00
2018-03-23T15:46:30.021Z,30.43
2018-03-23T15:48:57.625Z,34.43
2018-03-23T15:51:25.108Z,33.03
2018-03-23T15:53:53.348Z,31.23
2018-03-23T15:56:20.874Z,34.70
2018-03-23T15:58:48.302Z,32.50
2018-03-23T16:01:16.566Z,37.17
2018-03-23T16:03:44.053Z,33.83
2018-03-23T16:06:11.532Z,32.23
2018-03-23T16:08:39.007Z,35.00
2018-03-23T16:11:06.485Z,32.97
2018-03-23T16:13:33.957Z,31.23
2018-03-23T16:16:02.936Z,33.33
2018-03-23T16:18:30.445Z,34.83
2018-03-23T16:20:58.677Z,31.37
2018-03-23T16:23:26.154Z,28.70
2018-03-23T16:25:54.405Z,29.30
2018-03-23T16:28:21.892Z,28.83
2018-03-23T16:30:50.133Z,60.20
2018-03-23T16:33:17.605Z,28.50
2018-03-23T16:35:45.089Z,27.37
2018-03-23T16:38:12.558Z,24.63
2018-03-23T16:40:40.040Z,26.07
2018-03-23T16:43:07.531Z,25.93
2018-03-23T16:45:35.046Z,26.07
2018-03-23T16:48:02.524Z,26.67
2018-03-23T16:50:30.002Z,24.97
2018-03-23T16:52:57.481Z,29.73
2018-03-23T16:55:25.736Z,24.53
2018-03-23T16:57:53.201Z,27.47
2018-03-23T17:00:20.702Z,28.83
2018-03-23T17:02:48.171Z,26.67
2018-03-23T17:05:15.655Z,32.23
2018-03-23T17:07:43.118Z,31.60
2018-03-23T17:10:10.591Z,28.50
2018-03-23T17:12:38.071Z,28.07
2018-03-23T17:15:06.313Z,28.40
2018-03-23T17:17:33.796Z,32.07
2018-03-23T17:20:02.065Z,30.13
2018-03-23T17:22:30.292Z,32.57
2018-03-23T17:24:57.778Z,27.07
2018-03-23T17:27:25.342Z,33.57
2018-03-23T17:29:52.816Z,30.03
2018-03-23T17:32:21.053Z,29.43
2018-03-23T17:34:48.578Z,24.83
2018-03-23T17:37:16.065Z,22.73
2018-03-23T17:39:43.534Z,26.70
2018-03-23T17:42:11.017Z,20.57
2018-03-23T17:44:39.255Z,21.87
2018-03-23T17:47:06.738Z,20.20
2018-03-23T17:49:35.014Z,19.00
2018-03-23T17:52:03.512Z,22.17
2018-03-23T17:54:31.755Z,18.90
2018-03-23T17:56:59.229Z,21.50
2018-03-23T17:59:26.733Z,21.90
2018-03-23T18:01:54.212Z,18.10
2018-03-23T18:04:21.697Z,18.73
2018-03-23T18:06:49.173Z,21.23
2018-03-23T18:09:17.405Z,23.90
2018-03-23T18:11:44.901Z,23.87
2018-03-23T18:14:13.141Z,21.70
2018-03-23T18:16:40.627Z,30.60
2018-03-23T18:19:09.609Z,28.03
2018-03-23T18:21:37.106Z,24.17
2018-03-23T18:24:04.561Z,18.50
2018-03-23T18:26:32.052Z,18.47
2018-03-23T18:28:59.516Z,22.93
2018-03-23T18:31:27.003Z,20.20
2018-03-23T18:33:54.457Z,22.13
2018-03-23T18:36:21.944Z,17.37
2018-03-23T18:38:49.446Z,16.73
2018-03-23T18:41:16.928Z,18.63
2018-03-23T18:43:44.388Z,19.00
2018-03-23T18:46:11.860Z,27.63
2018-03-23T18:48:40.166Z,23.17
2018-03-23T18:51:07.673Z,16.80
2018-03-23T18:53:35.246Z,17.30
2018-03-23T18:56:03.494Z,24.60
2018-03-23T18:58:30.971Z,20.27
2018-03-23T19:00:58.490Z,20.33
2018-03-23T19:03:25.957Z,18.63
2018-03-23T19:05:53.432Z,19.50
2018-03-23T19:08:20.901Z,21.23
2018-03-23T19:10:48.401Z,24.70
2018-03-23T19:13:15.862Z,17.33
2018-03-23T19:15:43.355Z,24.80
2018-03-23T19:18:10.829Z,20.63
2018-03-23T19:20:38.313Z,20.80
2018-03-23T19:23:06.549Z,18.97
2018-03-23T19:25:34.021Z,16.90
2018-03-23T19:28:02.303Z,19.17
2018-03-23T19:30:29.781Z,21.53
2018-03-23T19:32:57.247Z,22.13
2018-03-23T19:35:24.732Z,22.93
2018-03-23T19:37:52.206Z,20.80
2018-03-23T19:40:19.701Z,23.17
2018-03-23T19:42:47.175Z,23.77
2018-03-23T19:45:14.699Z,18.97
2018-03-23T19:47:42.140Z,22.10
2018-03-23T19:50:09.612Z,20.70
2018-03-23T19:52:37.085Z,34.20
2018-03-23T19:55:05.318Z,32.63
2018-03-23T19:57:32.921Z,23.10
2018-03-23T20:00:01.154Z,18.70
2018-03-23T20:02:28.646Z,24.50
2018-03-23T20:04:56.125Z,22.63
2018-03-23T20:07:23.628Z,23.30
2018-03-23T20:09:51.257Z,23.60
2018-03-23T20:12:18.817Z,23.27
2018-03-23T20:14:46.302Z,20.03
2018-03-23T20:17:13.796Z,20.03
2018-03-23T20:19:42.050Z,21.37
2018-03-23T20:22:09.534Z,24.30
2018-03-23T20:24:37.785Z,24.77
2018-03-23T20:27:11.039Z,25.00
2018-03-23T20:29:38.521Z,20.50
2018-03-23T20:32:11.660Z,22.90
2018-03-23T20:34:39.927Z,23.97
2018-03-23T20:37:07.434Z,23.67
2018-03-23T20:39:34.909Z,27.23
2018-03-23T20:42:02.406Z,32.57
2018-03-23T20:44:30.706Z,36.13
2018-03-23T20:46:58.200Z,27.57
2018-03-23T20:49:25.673Z,30.70
2018-03-23T20:51:53.160Z,24.50
2018-03-23T20:54:21.442Z,24.77
2018-03-23T20:56:48.945Z,23.87
2018-03-23T20:59:16.421Z,22.80
2018-03-23T21:01:44.098Z,25.60
2018-03-23T21:04:12.365Z,22.00
2018-03-23T21:06:39.864Z,23.87
2018-03-23T21:09:07.361Z,22.70
2018-03-23T21:11:34.850Z,23.93
2018-03-23T21:14:03.090Z,23.37
2018-03-23T21:16:30.605Z,25.60
2018-03-23T21:18:58.096Z,26.37
2018-03-23T21:21:25.588Z,26.50
2018-03-23T21:23:53.834Z,30.83
2018-03-23T21:26:21.339Z,28.90
2018-03-23T21:28:48.810Z,28.50
2018-03-23T21:31:16.332Z,28.57
2018-03-23T21:33:43.796Z,27.20
2018-03-23T21:36:12.055Z,30.53
2018-03-23T21:38:39.523Z,35.63
2018-03-23T21:41:07.789Z,26.67
2018-03-23T21:43:35.249Z,28.50
2018-03-23T21:46:03.500Z,32.60
2018-03-23T21:48:30.969Z,35.87
2018-03-23T21:50:58.458Z,32.70
2018-03-23T21:53:26.690Z,31.53
2018-03-23T21:55:54.157Z,36.90
2018-03-23T21:58:21.674Z,37.37
2018-03-23T22:00:50.125Z,35.50
2018-03-23T22:03:18.383Z,33.10
2018-03-23T22:05:45.840Z,29.10
2018-03-23T22:08:13.353Z,32.50
2018-03-23T22:10:40.829Z,29.27
2018-03-23T22:13:08.318Z,30.47
2018-03-23T22:15:35.789Z,32.10
2018-03-23T22:18:04.048Z,29.63
2018-03-23T22:20:31.632Z,27.80
2018-03-23T22:22:59.902Z,31.00
2018-03-23T22:25:27.372Z,26.60
2018-03-23T22:27:55.619Z,31.20
2018-03-23T22:30:23.084Z,32.70
2018-03-23T22:32:51.367Z,33.07
2018-03-23T22:35:19.596Z,32.73
2018-03-23T22:37:47.132Z,29.13
2018-03-23T22:40:14.592Z,32.33
2018-03-23T22:42:42.083Z,29.77
2018-03-23T22:45:09.551Z,28.97
2018-03-23T22:47:37.045Z,32.90
2018-03-23T22:50:05.270Z,24.60
2018-03-23T22:52:32.758Z,29.83
2018-03-23T22:55:00.984Z,28.87
2018-03-23T22:57:28.460Z,29.83
2018-03-23T22:59:55.929Z,25.90
2018-03-23T23:02:24.172Z,27.33
2018-03-23T23:04:51.671Z,25.70
2018-03-23T23:07:19.171Z,32.07
2018-03-23T23:09:46.639Z,26.47
2018-03-23T23:12:14.151Z,26.17
2018-03-23T23:14:41.615Z,27.80
2018-03-23T23:17:09.870Z,24.17
2018-03-23T23:19:37.343Z,27.50
2018-03-23T23:22:05.612Z,25.33
2018-03-23T23:24:33.072Z,30.37
2018-03-23T23:27:00.558Z,30.20
2018-03-23T23:29:28.024Z,25.93
2018-03-23T23:31:55.505Z,29.37
2018-03-23T23:34:22.969Z,31.20
2018-03-23T23:36:50.455Z,30.13
2018-03-23T23:39:17.920Z,29.33
2018-03-23T23:41:45.408Z,22.53
2018-03-23T23:44:13.646Z,28.43
2018-03-23T23:46:41.142Z,23.53
2018-03-23T23:49:09.369Z,28.47
2018-03-23T23:51:36.853Z,27.00
2018-03-23T23:54:04.322Z,29.60
2018-03-23T23:56:31.793Z,27.37
2018-03-23T23:59:00.034Z,25.67
